Time;durP1;ratioP1;P1;durP2;ratioP2;P2;SDS_P1;SDS_P2;PMS_P1;PMS_P2;Temp;Humidity;BMP_temperature;BMP_pressure;BME280_temperature;BME280_humidity;BME280_pressure;Samples;Min_cycle;Max_cycle;Signal;HPM_P1;HPM_P2
2022/08/01 00:00:55;;;;;;;;;;;11.70;99.90;;;;;;5010044;28;20380;-64
2022/08/01 00:03:22;;;;;;;;;;;11.70;99.90;;;;;;5007787;28;20297;-63
2022/08/01 00:05:50;;;;;;;;;;;11.70;99.90;;;;;;5009204;28;19925;-64
2022/08/01 00:08:17;;;;;;;;;;;11.70;99.90;;;;;;5022090;28;19926;-62
2022/08/01 00:10:45;;;;;;;;;;;11.70;99.90;;;;;;5011140;28;19936;-63
2022/08/01 00:13:12;;;;;;;;;;;11.60;99.90;;;;;;5003425;28;19933;-64
2022/08/01 00:15:41;;;;;;;;;;;11.50;99.90;;;;;;5000974;28;20300;-62
2022/08/01 00:18:22;;;;;;;;;;;11.50;99.90;;;;;;4997252;28;19933;-64
2022/08/01 00:20:50;;;;;;;;;;;11.40;99.90;;;;;;5010338;28;20305;-65
2022/08/01 00:23:17;;;;;;;;;;;11.40;99.90;;;;;;5000718;28;19937;-65
2022/08/01 00:25:45;;;;;;;;;;;11.40;99.90;;;;;;5012420;28;19929;-64
2022/08/01 00:28:13;;;;;;;;;;;11.30;99.90;;;;;;5009418;28;19933;-64
2022/08/01 00:30:40;;;;;;;;;;;11.30;99.90;;;;;;5010008;28;20292;-61
2022/08/01 00:33:08;;;;;;;;;;;11.30;99.90;;;;;;5008165;28;19925;-64
2022/08/01 00:35:35;;;;;;;;;;;11.30;99.90;;;;;;5002176;28;19926;-65
2022/08/01 00:38:03;;;;;;;;;;;11.30;99.90;;;;;;5008432;28;19941;-62
2022/08/01 00:40:30;;;;;;;;;;;11.20;99.90;;;;;;5007667;28;19933;-61
2022/08/01 00:42:58;;;;;;;;;;;11.20;99.90;;;;;;5007464;28;19934;-62
2022/08/01 00:45:26;;;;;;;;;;;11.20;99.90;;;;;;5007564;28;19925;-65
2022/08/01 00:47:54;;;;;;;;;;;11.20;99.90;;;;;;5020413;28;19934;-64
2022/08/01 00:50:22;;;;;;;;;;;11.20;99.90;;;;;;4990989;28;19934;-64
2022/08/01 00:52:51;;;;;;;;;;;11.10;99.90;;;;;;5000484;28;19949;-63
2022/08/01 00:55:19;;;;;;;;;;;11.10;99.90;;;;;;5006279;28;19937;-63
2022/08/01 00:57:47;;;;;;;;;;;11.10;99.90;;;;;;5010152;28;19936;-63
2022/08/01 01:00:32;;;;;;;;;;;11.10;99.90;;;;;;5009757;28;19932;-61
2022/08/01 01:03:19;;;;;;;;;;;11.10;99.90;;;;;;4998814;28;19949;-62
2022/08/01 01:05:59;;;;;;;;;;;11.00;99.90;;;;;;5006169;28;19929;-61
2022/08/01 01:08:32;;;;;;;;;;;11.00;99.90;;;;;;5007795;28;19932;-62
2022/08/01 01:11:19;;;;;;;;;;;10.90;99.90;;;;;;5024439;28;19932;-60
2022/08/01 01:13:52;;;;;;;;;;;10.90;99.90;;;;;;4981927;28;19925;-60
2022/08/01 01:16:21;;;;;;;;;;;10.90;99.90;;;;;;5020042;28;19925;-60
2022/08/01 01:18:57;;;;;;;;;;;10.90;99.90;;;;;;5007376;28;19964;-61
2022/08/01 01:21:34;;;;;;;;;;;10.80;99.90;;;;;;5010254;28;19925;-61
2022/08/01 01:24:05;;;;;;;;;;;10.80;99.90;;;;;;5004185;28;20284;-60
2022/08/01 01:26:51;;;;;;;;;;;10.80;99.90;;;;;;5009151;28;19925;-63
2022/08/01 01:29:19;;;;;;;;;;;10.80;99.90;;;;;;5009645;28;20340;-61
2022/08/01 01:31:53;;;;;;;;;;;10.70;99.90;;;;;;5009233;28;19926;-60
2022/08/01 01:34:21;;;;;;;;;;;10.70;99.90;;;;;;5012054;28;20135;-60
2022/08/01 01:36:50;;;;;;;;;;;10.70;99.90;;;;;;5012805;28;19932;-62
2022/08/01 01:39:18;;;;;;;;;;;10.70;99.90;;;;;;5012444;28;19936;-61
2022/08/01 01:41:46;;;;;;;;;;;10.60;99.90;;;;;;5009752;28;19952;-61
2022/08/01 01:44:15;;;;;;;;;;;10.60;99.90;;;;;;5012786;28;19925;-60
2022/08/01 01:46:42;;;;;;;;;;;10.60;99.90;;;;;;5010268;28;19925;-61
2022/08/01 01:49:11;;;;;;;;;;;10.60;99.90;;;;;;5011468;28;19932;-61
2022/08/01 01:51:40;;;;;;;;;;;10.60;99.90;;;;;;5004980;28;19933;-61
2022/08/01 01:54:20;;;;;;;;;;;10.60;99.90;;;;;;4993071;28;19926;-61
2022/08/01 01:56:50;;;;;;;;;;;10.60;99.90;;;;;;4993024;28;19926;-60
2022/08/01 01:59:24;;;;;;;;;;;10.60;99.90;;;;;;4999225;28;19933;-61
2022/08/01 02:01:54;;;;;;;;;;;10.60;99.90;;;;;;5012173;28;20392;-61
2022/08/01 02:04:35;;;;;;;;;;;10.60;99.90;;;;;;5012598;28;19932;-60
2022/08/01 02:07:02;;;;;;;;;;;10.60;99.90;;;;;;5027513;28;19925;-61
2022/08/01 02:09:33;;;;;;;;;;;10.60;99.90;;;;;;5011698;28;20473;-61
2022/08/01 02:12:01;;;;;;;;;;;10.60;99.90;;;;;;5003128;28;19941;-60
2022/08/01 02:14:36;;;;;;;;;;;10.50;99.90;;;;;;4992283;28;20426;-62
2022/08/01 02:17:04;;;;;;;;;;;10.50;99.90;;;;;;4992772;28;19926;-60
2022/08/01 02:19:34;;;;;;;;;;;10.50;99.90;;;;;;4992765;28;19949;-60
2022/08/01 02:22:07;;;;;;;;;;;10.50;99.90;;;;;;4992758;28;19926;-61
2022/08/01 02:24:37;;;;;;;;;;;10.50;99.90;;;;;;4992392;28;19929;-63
2022/08/01 02:27:07;;;;;;;;;;;10.50;99.90;;;;;;4994951;28;20313;-61
2022/08/01 02:29:37;;;;;;;;;;;10.40;99.90;;;;;;4993191;28;19937;-61
2022/08/01 02:32:06;;;;;;;;;;;10.50;99.90;;;;;;4991304;28;19936;-60
2022/08/01 02:34:35;;;;;;;;;;;10.50;99.90;;;;;;4992472;28;20404;-63
2022/08/01 02:37:03;;;;;;;;;;;10.50;99.90;;;;;;4998727;28;19933;-61
2022/08/01 02:39:31;;;;;;;;;;;10.50;99.90;;;;;;4998878;28;19930;-61
2022/08/01 02:42:03;;;;;;;;;;;10.40;99.90;;;;;;5005701;28;19932;-61
2022/08/01 02:44:35;;;;;;;;;;;10.40;99.90;;;;;;5018436;28;20001;-61
2022/08/01 02:47:03;;;;;;;;;;;10.40;99.90;;;;;;5018691;28;19933;-60
2022/08/01 02:49:33;;;;;;;;;;;10.40;99.90;;;;;;5017288;28;19925;-60
2022/08/01 02:52:06;;;;;;;;;;;10.40;99.90;;;;;;5018374;28;19925;-60
2022/08/01 02:54:35;;;;;;;;;;;10.40;99.90;;;;;;5018378;28;19929;-62
2022/08/01 02:57:03;;;;;;;;;;;10.40;99.90;;;;;;5018614;28;19932;-61
2022/08/01 02:59:33;;;;;;;;;;;10.40;99.90;;;;;;5018299;28;19933;-60
2022/08/01 03:02:01;;;;;;;;;;;10.80;99.90;;;;;;5018432;28;19933;-60
2022/08/01 03:04:30;;;;;;;;;;;10.40;99.90;;;;;;5018357;28;20369;-62
2022/08/01 03:06:58;;;;;;;;;;;10.40;99.90;;;;;;5033765;28;19933;-63
2022/08/01 03:09:26;;;;;;;;;;;10.40;99.90;;;;;;5018279;28;19925;-62
2022/08/01 03:11:55;;;;;;;;;;;10.40;99.90;;;;;;5008961;28;19926;-63
2022/08/01 03:14:23;;;;;;;;;;;10.40;99.90;;;;;;4998577;28;20484;-61
2022/08/01 03:16:52;;;;;;;;;;;10.40;99.90;;;;;;4998704;28;20292;-62
2022/08/01 03:19:20;;;;;;;;;;;10.40;99.90;;;;;;5016068;28;19942;-62
2022/08/01 03:21:48;;;;;;;;;;;10.30;99.90;;;;;;5033577;28;19925;-61
2022/08/01 03:24:16;;;;;;;;;;;10.30;99.90;;;;;;5016994;28;19929;-60
2022/08/01 03:26:44;;;;;;;;;;;10.30;99.90;;;;;;5018416;28;19933;-63
2022/08/01 03:29:21;;;;;;;;;;;10.20;99.90;;;;;;5017960;28;20349;-60
2022/08/01 03:31:49;;;;;;;;;;;10.20;99.90;;;;;;5018141;28;19926;-63
2022/08/01 03:34:17;;;;;;;;;;;10.20;99.90;;;;;;5018222;28;19925;-60
2022/08/01 03:36:49;;;;;;;;;;;10.20;99.90;;;;;;5014608;28;19925;-61
2022/08/01 03:39:19;;;;;;;;;;;10.20;99.90;;;;;;5017956;28;19942;-61
2022/08/01 03:41:50;;;;;;;;;;;10.10;99.90;;;;;;5017670;28;20392;-60
2022/08/01 03:44:25;;;;;;;;;;;10.10;99.90;;;;;;5017952;28;19925;-63
2022/08/01 03:46:56;;;;;;;;;;;10.10;99.90;;;;;;5016761;28;19933;-60
2022/08/01 03:49:28;;;;;;;;;;;10.10;99.90;;;;;;5014564;28;19933;-61
2022/08/01 03:51:56;;;;;;;;;;;10.10;99.90;;;;;;5014989;28;19933;-61
2022/08/01 03:54:24;;;;;;;;;;;10.00;99.90;;;;;;5014607;28;19925;-61
2022/08/01 03:56:52;;;;;;;;;;;10.10;99.90;;;;;;5014744;28;19925;-62
2022/08/01 03:59:20;;;;;;;;;;;10.10;99.90;;;;;;5014361;28;20397;-63
2022/08/01 04:01:48;;;;;;;;;;;10.10;99.90;;;;;;5014523;28;19926;-63
2022/08/01 04:04:15;;;;;;;;;;;10.10;99.90;;;;;;5014734;28;20285;-62
2022/08/01 04:06:47;;;;;;;;;;;10.10;99.90;;;;;;5014837;28;19926;-60
2022/08/01 04:09:15;;;;;;;;;;;10.10;99.90;;;;;;5014584;28;20420;-60
2022/08/01 04:11:42;;;;;;;;;;;10.10;99.90;;;;;;5023486;28;19933;-61
2022/08/01 04:14:10;;;;;;;;;;;10.10;99.90;;;;;;4995441;28;19933;-62
2022/08/01 04:16:37;;;;;;;;;;;10.10;99.90;;;;;;4994834;28;19933;-63
2022/08/01 04:19:07;;;;;;;;;;;10.00;99.90;;;;;;4994862;28;20440;-62
2022/08/01 04:21:35;;;;;;;;;;;10.10;99.90;;;;;;4994888;28;19929;-63
2022/08/01 04:24:08;;;;;;;;;;;10.00;99.90;;;;;;4994941;28;19930;-63
2022/08/01 04:26:37;;;;;;;;;;;10.10;99.90;;;;;;4994767;28;19952;-63
2022/08/01 04:29:05;;;;;;;;;;;10.00;99.90;;;;;;4999681;28;19926;-63
2022/08/01 04:31:34;;;;;;;;;;;10.10;99.90;;;;;;5014347;28;19932;-61
2022/08/01 04:34:02;;;;;;;;;;;10.10;99.90;;;;;;4996827;28;19998;-60
2022/08/01 04:36:32;;;;;;;;;;;10.10;99.90;;;;;;4994871;28;20293;-61
2022/08/01 04:39:00;;;;;;;;;;;10.10;99.90;;;;;;4992105;28;19949;-62
2022/08/01 04:41:29;;;;;;;;;;;10.10;99.90;;;;;;5010386;28;19925;-62
2022/08/01 04:43:59;;;;;;;;;;;10.10;99.90;;;;;;5013970;28;19948;-60
2022/08/01 04:46:27;;;;;;;;;;;10.10;99.90;;;;;;5013909;28;19925;-62
2022/08/01 04:48:55;;;;;;;;;;;10.10;99.90;;;;;;5006799;28;19925;-62
2022/08/01 04:51:24;;;;;;;;;;;10.10;99.90;;;;;;5009820;28;19925;-61
2022/08/01 04:53:52;;;;;;;;;;;10.10;99.90;;;;;;5010003;28;19933;-62
2022/08/01 04:56:20;;;;;;;;;;;10.10;99.90;;;;;;5025519;28;19925;-64
2022/08/01 04:58:48;;;;;;;;;;;10.10;99.90;;;;;;5006910;28;19932;-62
2022/08/01 05:01:15;;;;;;;;;;;10.10;99.90;;;;;;5025395;28;19930;-60
2022/08/01 05:03:43;;;;;;;;;;;10.10;99.90;;;;;;5003201;28;20004;-61
2022/08/01 05:06:11;;;;;;;;;;;10.20;99.90;;;;;;5021547;28;19941;-61
2022/08/01 05:08:38;;;;;;;;;;;10.10;99.90;;;;;;4994639;28;19933;-61
2022/08/01 05:11:06;;;;;;;;;;;10.20;99.90;;;;;;4988252;28;20332;-61
2022/08/01 05:13:34;;;;;;;;;;;10.20;99.90;;;;;;5003650;28;20421;-62
2022/08/01 05:16:03;;;;;;;;;;;10.20;99.90;;;;;;5007871;28;20288;-62
2022/08/01 05:18:30;;;;;;;;;;;10.30;99.90;;;;;;5007593;28;19926;-60
2022/08/01 05:20:59;;;;;;;;;;;10.30;99.90;;;;;;5006635;28;19937;-62
2022/08/01 05:23:26;;;;;;;;;;;10.30;99.90;;;;;;5006898;28;19929;-62
2022/08/01 05:26:10;;;;;;;;;;;10.40;99.90;;;;;;5006783;28;20008;-64
2022/08/01 05:28:41;;;;;;;;;;;10.40;99.90;;;;;;5005006;28;20372;-63
2022/08/01 05:31:08;;;;;;;;;;;10.40;99.90;;;;;;4992132;28;19929;-63
2022/08/01 05:33:36;;;;;;;;;;;10.50;99.90;;;;;;4993340;28;20397;-61
2022/08/01 05:36:03;;;;;;;;;;;10.50;99.90;;;;;;4990291;28;19926;-62
2022/08/01 05:38:31;;;;;;;;;;;10.60;99.90;;;;;;5001910;28;20317;-62
2022/08/01 05:40:58;;;;;;;;;;;10.60;99.90;;;;;;5009519;28;19925;-62
2022/08/01 05:43:26;;;;;;;;;;;10.50;99.90;;;;;;5007842;28;19933;-61
2022/08/01 05:45:55;;;;;;;;;;;10.70;99.90;;;;;;5007190;28;19926;-61
2022/08/01 05:48:23;;;;;;;;;;;10.70;99.90;;;;;;5008197;28;19933;-63
2022/08/01 05:50:50;;;;;;;;;;;10.70;99.90;;;;;;5009556;28;19925;-62
2022/08/01 05:53:24;;;;;;;;;;;10.80;99.90;;;;;;5009154;28;19926;-63
2022/08/01 05:55:52;;;;;;;;;;;10.80;99.90;;;;;;5008504;28;19925;-63
2022/08/01 05:58:19;;;;;;;;;;;10.90;99.90;;;;;;5004099;28;19932;-60
2022/08/01 06:00:47;;;;;;;;;;;11.00;99.90;;;;;;5003659;28;19925;-61
2022/08/01 06:03:14;;;;;;;;;;;11.00;99.90;;;;;;5003113;28;19925;-61
2022/08/01 06:05:42;;;;;;;;;;;11.10;99.90;;;;;;5006330;28;20372;-63
2022/08/01 06:08:09;;;;;;;;;;;11.10;99.90;;;;;;5017761;28;19926;-62
2022/08/01 06:10:37;;;;;;;;;;;11.20;99.90;;;;;;5007757;28;20368;-62
2022/08/01 06:13:04;;;;;;;;;;;11.30;99.90;;;;;;5008997;28;20419;-62
2022/08/01 06:15:32;;;;;;;;;;;11.40;99.90;;;;;;5008329;28;19951;-61
2022/08/01 06:17:59;;;;;;;;;;;11.40;99.90;;;;;;5006648;28;19932;-62
2022/08/01 06:20:27;;;;;;;;;;;11.50;99.90;;;;;;5009454;28;19929;-62
2022/08/01 06:22:54;;;;;;;;;;;11.60;99.90;;;;;;5007641;28;19932;-61
2022/08/01 06:25:22;;;;;;;;;;;11.70;99.90;;;;;;5008859;28;19930;-61
2022/08/01 06:27:50;;;;;;;;;;;11.80;99.90;;;;;;5008809;28;19930;-62
2022/08/01 06:30:18;;;;;;;;;;;11.80;99.90;;;;;;5007953;28;19926;-61
2022/08/01 06:32:46;;;;;;;;;;;11.90;99.90;;;;;;5003241;28;19926;-62
2022/08/01 06:35:14;;;;;;;;;;;12.00;99.90;;;;;;5005628;28;19925;-61
2022/08/01 06:37:41;;;;;;;;;;;12.10;99.90;;;;;;5008841;28;19944;-62
2022/08/01 06:40:10;;;;;;;;;;;12.20;99.90;;;;;;5009219;28;20397;-64
2022/08/01 06:42:45;;;;;;;;;;;12.30;99.90;;;;;;5004490;28;19929;-61
2022/08/01 06:45:13;;;;;;;;;;;12.30;99.90;;;;;;5004653;28;20395;-62
2022/08/01 06:47:42;;;;;;;;;;;12.30;99.90;;;;;;5007654;28;19925;-61
2022/08/01 06:50:09;;;;;;;;;;;12.40;99.90;;;;;;5007671;28;19926;-62
2022/08/01 06:52:37;;;;;;;;;;;12.40;99.90;;;;;;5008098;28;19925;-61
2022/08/01 06:55:05;;;;;;;;;;;12.40;99.90;;;;;;5008938;28;19925;-61
2022/08/01 06:57:47;;;;;;;;;;;12.40;99.90;;;;;;5008045;28;19926;-62
2022/08/01 07:00:16;;;;;;;;;;;12.40;99.90;;;;;;5007733;28;19929;-61
2022/08/01 07:02:43;;;;;;;;;;;12.40;99.90;;;;;;5001401;28;19925;-61
2022/08/01 07:05:11;;;;;;;;;;;12.30;99.90;;;;;;5004722;28;19925;-60
2022/08/01 07:07:38;;;;;;;;;;;12.30;99.90;;;;;;5007316;28;19941;-62
2022/08/01 07:10:08;;;;;;;;;;;12.30;99.90;;;;;;5008533;28;19937;-62
2022/08/01 07:12:37;;;;;;;;;;;12.30;99.90;;;;;;5008011;28;19929;-61
2022/08/01 07:15:05;;;;;;;;;;;12.30;99.90;;;;;;5006325;28;19925;-61
2022/08/01 07:17:36;;;;;;;;;;;12.30;99.90;;;;;;5008337;28;19933;-61
2022/08/01 07:20:03;;;;;;;;;;;12.40;99.90;;;;;;5006401;28;19925;-62
2022/08/01 07:22:31;;;;;;;;;;;12.50;99.90;;;;;;5006599;28;19940;-61
2022/08/01 07:25:04;;;;;;;;;;;12.60;99.90;;;;;;5007075;28;19944;-61
2022/08/01 07:27:32;;;;;;;;;;;12.60;99.90;;;;;;5022440;28;19929;-61
2022/08/01 07:29:59;;;;;;;;;;;12.70;99.90;;;;;;4996089;28;19926;-62
2022/08/01 07:32:28;;;;;;;;;;;12.80;99.90;;;;;;5009229;28;19929;-62
2022/08/01 07:34:56;;;;;;;;;;;12.90;99.90;;;;;;5005986;28;19925;-62
2022/08/01 07:37:26;;;;;;;;;;;13.00;99.90;;;;;;5009359;28;20396;-62
2022/08/01 07:40:14;;;;;;;;;;;13.10;99.90;;;;;;5011041;28;19925;-62
2022/08/01 07:42:43;;;;;;;;;;;13.20;99.90;;;;;;5010524;28;19932;-62
2022/08/01 07:45:11;;;;;;;;;;;13.40;99.90;;;;;;5009588;28;19925;-62
2022/08/01 07:47:38;;;;;;;;;;;13.50;99.90;;;;;;5010493;28;19929;-62
2022/08/01 07:50:06;;;;;;;;;;;13.60;99.90;;;;;;4997348;28;19933;-61
2022/08/01 07:52:34;;;;;;;;;;;13.70;99.90;;;;;;5010275;28;19925;-62
2022/08/01 07:55:02;;;;;;;;;;;13.80;99.90;;;;;;5009529;28;19933;-62
2022/08/01 07:57:29;;;;;;;;;;;14.00;99.90;;;;;;5011308;28;20369;-62
2022/08/01 07:59:57;;;;;;;;;;;14.10;99.90;;;;;;4992011;28;20405;-62
2022/08/01 08:02:24;;;;;;;;;;;14.20;99.90;;;;;;4994441;28;19926;-62
2022/08/01 08:04:52;;;;;;;;;;;14.30;99.90;;;;;;5010681;28;19926;-62
2022/08/01 08:07:19;;;;;;;;;;;14.40;99.90;;;;;;5024251;28;19930;-62
2022/08/01 08:09:47;;;;;;;;;;;14.50;99.90;;;;;;5007415;28;19925;-63
2022/08/01 08:12:17;;;;;;;;;;;14.60;99.90;;;;;;5002268;28;20458;-60
2022/08/01 08:14:55;;;;;;;;;;;14.60;99.90;;;;;;5006445;28;19932;-63
2022/08/01 08:17:24;;;;;;;;;;;14.70;99.90;;;;;;5026463;28;19984;-62
2022/08/01 08:19:52;;;;;;;;;;;14.90;99.90;;;;;;5009997;28;19926;-64
2022/08/01 08:22:19;;;;;;;;;;;14.90;99.90;;;;;;5010597;28;20399;-63
2022/08/01 08:24:48;;;;;;;;;;;15.00;99.90;;;;;;5010800;28;20328;-61
2022/08/01 08:27:16;;;;;;;;;;;15.10;99.90;;;;;;5010776;28;19932;-63
2022/08/01 08:29:45;;;;;;;;;;;15.20;99.90;;;;;;5010155;28;20277;-61
2022/08/01 08:32:13;;;;;;;;;;;15.30;99.90;;;;;;5004263;28;19933;-61
2022/08/01 08:34:40;;;;;;;;;;;15.40;99.90;;;;;;5005089;28;20408;-65
2022/08/01 08:37:08;;;;;;;;;;;15.50;99.90;;;;;;4999459;28;19933;-65
2022/08/01 08:39:36;;;;;;;;;;;15.60;99.90;;;;;;5009053;28;20396;-63
2022/08/01 08:42:08;;;;;;;;;;;15.70;99.90;;;;;;5010533;28;20312;-62
2022/08/01 08:44:38;;;;;;;;;;;15.90;99.90;;;;;;4995732;28;19926;-62
2022/08/01 08:47:14;;;;;;;;;;;15.90;99.90;;;;;;4990404;28;19933;-61
2022/08/01 08:49:48;;;;;;;;;;;16.00;99.90;;;;;;5009314;28;20280;-62
2022/08/01 08:52:18;;;;;;;;;;;16.10;99.90;;;;;;5009375;28;19925;-62
2022/08/01 08:54:46;;;;;;;;;;;16.20;99.90;;;;;;4992733;28;19925;-62
2022/08/01 08:57:15;;;;;;;;;;;16.30;99.90;;;;;;4990394;28;19937;-63
2022/08/01 08:59:43;;;;;;;;;;;16.40;99.90;;;;;;5017645;28;19926;-63
2022/08/01 09:02:11;;;;;;;;;;;16.50;99.90;;;;;;5009954;28;19933;-63
2022/08/01 09:04:40;;;;;;;;;;;16.50;99.90;;;;;;5008897;28;19933;-61
2022/08/01 09:07:08;;;;;;;;;;;16.60;99.90;;;;;;5020130;28;19933;-63
2022/08/01 09:09:38;;;;;;;;;;;16.60;99.90;;;;;;5010353;28;19926;-61
2022/08/01 09:12:08;;;;;;;;;;;16.70;99.90;;;;;;5009932;28;19926;-63
2022/08/01 09:14:43;;;;;;;;;;;16.80;99.90;;;;;;4995007;28;19930;-63
2022/08/01 09:17:12;;;;;;;;;;;16.90;99.90;;;;;;5000936;28;19929;-61
2022/08/01 09:19:41;;;;;;;;;;;17.00;99.90;;;;;;5009271;28;20385;-62
2022/08/01 09:22:09;;;;;;;;;;;17.10;99.90;;;;;;5008945;28;19933;-62
2022/08/01 09:24:37;;;;;;;;;;;17.20;99.90;;;;;;5009574;28;19926;-62
2022/08/01 09:27:15;;;;;;;;;;;17.30;99.90;;;;;;5003429;28;19940;-63
2022/08/01 09:29:44;;;;;;;;;;;17.30;99.90;;;;;;5005559;28;19925;-62
2022/08/01 09:32:16;;;;;;;;;;;17.40;99.90;;;;;;5004959;28;20293;-62
2022/08/01 09:34:43;;;;;;;;;;;17.50;99.90;;;;;;5006639;28;19933;-62
2022/08/01 09:37:17;;;;;;;;;;;17.60;99.90;;;;;;5024316;28;19925;-62
2022/08/01 09:39:57;;;;;;;;;;;17.70;99.90;;;;;;5008032;28;19930;-63
2022/08/01 09:42:26;;;;;;;;;;;17.80;99.90;;;;;;5008093;28;19926;-63
2022/08/01 09:44:55;;;;;;;;;;;17.80;99.90;;;;;;5005262;28;19929;-63
2022/08/01 09:47:36;;;;;;;;;;;17.90;99.90;;;;;;5005408;28;20323;-62
2022/08/01 09:50:05;;;;;;;;;;;18.00;99.90;;;;;;5008281;28;19933;-62
2022/08/01 09:52:37;;;;;;;;;;;18.00;99.90;;;;;;5007560;28;19929;-63
2022/08/01 09:55:09;;;;;;;;;;;18.10;99.90;;;;;;5024385;28;19925;-63
2022/08/01 09:57:36;;;;;;;;;;;18.20;99.90;;;;;;5008150;28;19937;-62
2022/08/01 10:00:04;;;;;;;;;;;18.30;99.90;;;;;;5008959;28;19930;-62
2022/08/01 10:02:41;;;;;;;;;;;18.40;99.90;;;;;;5009377;28;19933;-62
2022/08/01 10:05:10;;;;;;;;;;;18.50;99.90;;;;;;4979564;28;19926;-62
2022/08/01 10:07:57;;;;;;;;;;;18.60;99.90;;;;;;4998951;28;19926;-62
2022/08/01 10:10:25;;;;;;;;;;;18.70;99.90;;;;;;5008949;28;20308;-61
2022/08/01 10:12:58;;;;;;;;;;;18.80;99.90;;;;;;5009170;28;19953;-62
2022/08/01 10:15:27;;;;;;;;;;;18.80;99.90;;;;;;5009216;28;19926;-62
2022/08/01 10:18:05;;;;;;;;;;;19.00;99.90;;;;;;5009017;28;19933;-62
2022/08/01 10:20:43;;;;;;;;;;;19.00;99.90;;;;;;5009317;28;20434;-62
2022/08/01 10:23:11;;;;;;;;;;;19.00;99.90;;;;;;5007264;28;19930;-62
2022/08/01 10:25:41;;;;;;;;;;;19.00;99.90;;;;;;5007847;28;20304;-63
2022/08/01 10:28:17;;;;;;;;;;;19.10;99.90;;;;;;5003093;28;19926;-63
2022/08/01 10:30:48;;;;;;;;;;;19.30;99.90;;;;;;4989522;28;19932;-63
2022/08/01 10:33:17;;;;;;;;;;;19.40;99.90;;;;;;4998517;28;19997;-62
2022/08/01 10:36:04;;;;;;;;;;;19.50;99.90;;;;;;5028000;28;20402;-63
2022/08/01 10:38:35;;;;;;;;;;;19.70;99.90;;;;;;5013644;28;19929;-62
2022/08/01 10:41:04;;;;;;;;;;;19.80;99.80;;;;;;5008935;28;19926;-62
2022/08/01 10:43:35;;;;;;;;;;;19.90;99.60;;;;;;5008484;28;19941;-61
2022/08/01 10:46:03;;;;;;;;;;;20.10;99.30;;;;;;5009054;28;19926;-61
2022/08/01 10:48:38;;;;;;;;;;;20.10;98.90;;;;;;5008700;28;19929;-61
2022/08/01 10:51:06;;;;;;;;;;;20.20;98.60;;;;;;5009138;28;19932;-62
2022/08/01 10:53:51;;;;;;;;;;;20.30;98.50;;;;;;5008187;28;19932;-61
2022/08/01 10:56:22;;;;;;;;;;;20.40;98.20;;;;;;5008839;28;19925;-64
2022/08/01 10:59:03;;;;;;;;;;;20.40;98.30;;;;;;5011506;28;20258;-62
2022/08/01 11:01:38;;;;;;;;;;;20.50;98.50;;;;;;5011782;28;19948;-61
2022/08/01 11:04:12;;;;;;;;;;;20.60;98.40;;;;;;5012528;28;19932;-62
2022/08/01 11:06:50;;;;;;;;;;;20.80;98.00;;;;;;5011316;28;19926;-63
2022/08/01 11:09:26;;;;;;;;;;;20.90;97.10;;;;;;5014463;28;19936;-64
2022/08/01 11:12:07;;;;;;;;;;;21.00;96.80;;;;;;5012199;28;19926;-62
2022/08/01 11:14:58;;;;;;;;;;;21.00;96.80;;;;;;5007409;28;20388;-64
2022/08/01 11:17:41;;;;;;;;;;;21.10;97.20;;;;;;5011930;28;20408;-63
2022/08/01 11:20:16;;;;;;;;;;;21.20;97.50;;;;;;5011267;28;19948;-62
2022/08/01 11:23:10;;;;;;;;;;;21.40;97.20;;;;;;5011582;28;19937;-62
2022/08/01 11:25:48;;;;;;;;;;;21.60;97.20;;;;;;5012351;28;19937;-62
2022/08/01 11:28:36;;;;;;;;;;;21.80;96.80;;;;;;5012272;28;19948;-62
2022/08/01 11:31:16;;;;;;;;;;;22.00;96.60;;;;;;5010958;28;19933;-62
2022/08/01 11:33:48;;;;;;;;;;;22.10;95.40;;;;;;5010899;28;20000;-62
2022/08/01 11:36:21;;;;;;;;;;;22.20;95.50;;;;;;5032010;28;19940;-62
2022/08/01 11:39:10;;;;;;;;;;;22.30;95.40;;;;;;5013580;28;19952;-62
2022/08/01 11:41:41;;;;;;;;;;;22.50;95.40;;;;;;5010797;28;19934;-62
2022/08/01 11:44:19;;;;;;;;;;;22.60;95.20;;;;;;5011538;28;19930;-63
2022/08/01 11:47:02;;;;;;;;;;;22.80;94.70;;;;;;5011697;28;19932;-62
2022/08/01 11:49:36;;;;;;;;;;;22.90;94.60;;;;;;5011888;28;19930;-63
2022/08/01 11:52:15;;;;;;;;;;;23.00;92.80;;;;;;5010784;28;19930;-62
2022/08/01 11:54:46;;;;;;;;;;;23.00;93.90;;;;;;5011091;28;19977;-62
2022/08/01 11:57:13;;;;;;;;;;;23.20;93.20;;;;;;5010972;28;19948;-62
2022/08/01 11:59:51;;;;;;;;;;;23.20;93.00;;;;;;5011643;28;20577;-62
2022/08/01 12:02:40;;;;;;;;;;;23.30;93.10;;;;;;5008974;28;20304;-63
2022/08/01 12:05:11;;;;;;;;;;;23.20;92.50;;;;;;5008066;28;19930;-63
2022/08/01 12:07:41;;;;;;;;;;;23.40;93.50;;;;;;5009590;28;19925;-64
2022/08/01 12:10:10;;;;;;;;;;;23.70;94.00;;;;;;5009241;28;19925;-63
2022/08/01 12:12:51;;;;;;;;;;;23.90;92.70;;;;;;5009511;28;20293;-62
2022/08/01 12:15:19;;;;;;;;;;;24.10;91.40;;;;;;5006741;28;20304;-62
2022/08/01 12:17:48;;;;;;;;;;;24.40;91.90;;;;;;4997878;28;19926;-62
2022/08/01 12:20:29;;;;;;;;;;;24.60;91.10;;;;;;5011235;28;19925;-62
2022/08/01 12:22:59;;;;;;;;;;;24.80;88.80;;;;;;5004771;28;19932;-64
2022/08/01 12:25:27;;;;;;;;;;;25.00;89.20;;;;;;5008012;28;20419;-64
2022/08/01 12:27:58;;;;;;;;;;;25.20;89.00;;;;;;5007932;28;19932;-64
2022/08/01 12:30:26;;;;;;;;;;;25.40;86.90;;;;;;5008768;28;19936;-65
2022/08/01 12:32:54;;;;;;;;;;;25.40;86.40;;;;;;5008163;28;19960;-64
2022/08/01 12:35:23;;;;;;;;;;;25.60;85.10;;;;;;4999231;28;20380;-64
2022/08/01 12:37:52;;;;;;;;;;;25.70;84.90;;;;;;5003427;28;20491;-63
2022/08/01 12:40:19;;;;;;;;;;;25.60;84.50;;;;;;5006647;28;20392;-64
2022/08/01 12:42:48;;;;;;;;;;;25.70;85.20;;;;;;5010513;28;20320;-64
2022/08/01 12:45:17;;;;;;;;;;;25.70;85.00;;;;;;5010707;28;19929;-63
2022/08/01 12:47:45;;;;;;;;;;;25.90;84.60;;;;;;5009714;28;19925;-65
2022/08/01 12:50:14;;;;;;;;;;;26.20;83.60;;;;;;5010503;28;19940;-64
2022/08/01 12:52:42;;;;;;;;;;;26.50;81.60;;;;;;5010645;28;19956;-62
2022/08/01 12:55:18;;;;;;;;;;;26.70;82.30;;;;;;5010521;28;19937;-62
2022/08/01 12:57:50;;;;;;;;;;;26.90;81.90;;;;;;4995302;28;19932;-62
2022/08/01 13:00:21;;;;;;;;;;;27.00;77.70;;;;;;5010573;28;19925;-62
2022/08/01 13:02:50;;;;;;;;;;;26.80;78.40;;;;;;5007367;28;19926;-63
2022/08/01 13:05:17;;;;;;;;;;;26.70;79.90;;;;;;5007269;28;19929;-64
2022/08/01 13:07:46;;;;;;;;;;;26.60;79.20;;;;;;5009574;28;20419;-64
2022/08/01 13:10:14;;;;;;;;;;;26.60;80.10;;;;;;5006872;28;19948;-66
2022/08/01 13:12:51;;;;;;;;;;;26.50;80.40;;;;;;5011873;28;19960;-64
2022/08/01 13:15:31;;;;;;;;;;;26.50;79.00;;;;;;5010184;28;20466;-64
2022/08/01 13:17:59;;;;;;;;;;;26.50;78.80;;;;;;5010370;28;19929;-64
2022/08/01 13:20:31;;;;;;;;;;;26.40;78.50;;;;;;5009961;28;19932;-65
2022/08/01 13:23:12;;;;;;;;;;;26.30;78.80;;;;;;5009447;28;19929;-64
2022/08/01 13:25:50;;;;;;;;;;;26.40;79.70;;;;;;5009405;28;19925;-63
2022/08/01 13:28:22;;;;;;;;;;;26.40;79.00;;;;;;5010056;28;19926;-63
2022/08/01 13:30:56;;;;;;;;;;;26.50;79.30;;;;;;5010088;28;19925;-63
2022/08/01 13:33:25;;;;;;;;;;;26.70;78.90;;;;;;5009750;28;19952;-63
2022/08/01 13:35:53;;;;;;;;;;;26.70;78.30;;;;;;5025774;28;19925;-63
2022/08/01 13:39:40;;;;;;;;;;;26.40;77.00;;;;;;5018456;28;19993;-63
2022/08/01 13:41:09;;;;;;;;;;;26.10;77.80;;;;;;5009187;28;19933;-64
2022/08/01 13:43:36;;;;;;;;;;;25.90;78.70;;;;;;5009640;28;19925;-64
2022/08/01 13:46:24;;;;;;;;;;;25.80;79.20;;;;;;5009933;28;19926;-65
2022/08/01 13:48:55;;;;;;;;;;;25.70;79.90;;;;;;5008821;28;19926;-65
2022/08/01 13:51:23;;;;;;;;;;;25.70;79.00;;;;;;5009766;28;20369;-63
2022/08/01 13:53:50;;;;;;;;;;;25.60;79.20;;;;;;5009564;28;19936;-65
2022/08/01 13:56:18;;;;;;;;;;;25.40;79.40;;;;;;5008570;28;19925;-63
2022/08/01 13:58:46;;;;;;;;;;;25.20;80.10;;;;;;5008952;28;20388;-62
2022/08/01 14:01:13;;;;;;;;;;;25.20;81.00;;;;;;5007874;28;19932;-63
2022/08/01 14:03:41;;;;;;;;;;;25.20;81.40;;;;;;5003459;28;19937;-63
2022/08/01 14:06:08;;;;;;;;;;;25.20;82.50;;;;;;5006257;28;19932;-63
2022/08/01 14:08:36;;;;;;;;;;;25.50;81.90;;;;;;4995099;28;20417;-63
2022/08/01 14:11:03;;;;;;;;;;;25.80;81.90;;;;;;5004777;28;19930;-63
2022/08/01 14:13:34;;;;;;;;;;;25.90;79.50;;;;;;5000923;28;19925;-63
2022/08/01 14:16:03;;;;;;;;;;;25.90;80.20;;;;;;5007269;28;20092;-63
2022/08/01 14:18:31;;;;;;;;;;;26.00;79.30;;;;;;5007057;28;19933;-62
2022/08/01 14:20:58;;;;;;;;;;;26.10;79.20;;;;;;5018710;28;19925;-63
2022/08/01 14:23:32;;;;;;;;;;;26.00;78.60;;;;;;5008633;28;20385;-62
2022/08/01 14:25:59;;;;;;;;;;;25.90;78.50;;;;;;5008320;28;19929;-63
2022/08/01 14:28:38;;;;;;;;;;;25.70;79.10;;;;;;5002191;28;19929;-63
2022/08/01 14:31:08;;;;;;;;;;;25.60;79.90;;;;;;5015833;28;19944;-63
2022/08/01 14:33:36;;;;;;;;;;;25.50;79.60;;;;;;5007030;28;19925;-62
2022/08/01 14:36:04;;;;;;;;;;;25.80;80.30;;;;;;5009575;28;19937;-63